Time;durP1;ratioP1;P1;durP2;ratioP2;P2;SDS_P1;SDS_P2;PMS_P1;PMS_P2;Temp;Humidity;BMP_temperature;BMP_pressure;BME280_temperature;BME280_humidity;BME280_pressure;Samples;Min_cycle;Max_cycle;Signal;HPM_P1;HPM_P2
2023/12/29 00:02:12;;;;;;;20.48;17.52;;;;;;;3.36;79.50;99361.91;5149563;27;20088;-73
2023/12/29 00:04:39;;;;;;;23.80;19.15;;;;;;;3.36;79.77;99369.78;5149503;27;20314;-72
2023/12/29 00:07:06;;;;;;;22.00;17.73;;;;;;;3.36;79.77;99364.53;5149501;27;20039;-72
2023/12/29 00:09:40;;;;;;;22.10;17.48;;;;;;;3.37;79.62;99367.09;5149422;27;20188;-72
2023/12/29 00:12:08;;;;;;;29.42;21.48;;;;;;;2.76;80.02;99268.31;5149321;27;20047;-72
2023/12/29 00:14:34;;;;;;;22.70;17.75;;;;;;;3.39;79.61;99351.34;5149346;27;20039;-71
2023/12/29 00:17:01;;;;;;;23.95;19.25;;;;;;;3.42;79.42;99362.63;5149024;27;20287;-72
2023/12/29 00:19:27;;;;;;;21.33;18.02;;;;;;;3.44;79.51;99352.94;5149271;27;20326;-72
2023/12/29 00:21:54;;;;;;;21.60;17.30;;;;;;;3.29;79.66;99329.78;5149226;27;20042;-72
2023/12/29 00:24:21;;;;;;;22.30;18.73;;;;;;;3.44;79.60;99352.09;5148911;27;20038;-72
2023/12/29 00:26:49;;;;;;;22.83;17.92;;;;;;;3.27;79.54;99318.47;5127369;28;20055;-70
2023/12/29 00:29:15;;;;;;;22.75;18.05;;;;;;;3.49;79.72;99366.78;5128520;27;20212;-71
2023/12/29 00:31:42;;;;;;;21.23;18.40;;;;;;;3.49;79.74;99353.69;5128488;28;20074;-71
2023/12/29 00:34:09;;;;;;;23.85;19.08;;;;;;;3.51;79.60;99364.13;5128406;28;20054;-71
2023/12/29 00:36:35;;;;;;;24.15;17.83;;;;;;;3.56;79.63;99366.63;5128402;28;20051;-71
2023/12/29 00:39:02;;;;;;;22.95;17.52;;;;;;;3.58;79.30;99362.22;5127219;28;20039;-71
2023/12/29 00:41:29;;;;;;;21.65;18.63;;;;;;;3.56;79.57;99372.72;5128189;27;20054;-71
2023/12/29 00:43:57;;;;;;;26.70;20.83;;;;;;;3.50;79.95;99373.75;5128234;28;20048;-71
2023/12/29 00:46:23;;;;;;;22.45;18.40;;;;;;;3.46;79.87;99366.88;5128172;28;20043;-71
2023/12/29 00:48:50;;;;;;;23.40;17.40;;;;;;;3.34;80.09;99343.63;5127214;28;20050;-71
2023/12/29 00:51:16;;;;;;;22.95;18.70;;;;;;;3.47;80.10;99357.25;5128100;28;20062;-71
2023/12/29 00:53:43;;;;;;;22.63;17.50;;;;;;;3.36;80.00;99333.09;5127679;28;20055;-71
2023/12/29 00:56:13;;;;;;;23.00;17.15;;;;;;;3.56;79.73;99364.88;5127321;28;20039;-71
2023/12/29 00:58:40;;;;;;;22.30;17.95;;;;;;;3.12;79.50;99279.59;5127630;28;20048;-69
2023/12/29 01:01:11;;;;;;;21.35;17.83;;;;;;;3.02;79.38;99250.16;5128176;28;20039;-69
2023/12/29 01:03:38;;;;;;;22.48;17.73;;;;;;;3.41;79.44;99321.59;5127743;28;20066;-69
2023/12/29 01:06:05;;;;;;;23.58;18.88;;;;;;;3.60;nan;99356.03;5126845;27;20208;-69
2023/12/29 01:08:33;;;;;;;20.85;16.27;;;;;;;2.90;79.51;99242.63;5127930;28;20341;-68
2023/12/29 01:10:59;;;;;;;21.75;16.38;;;;;;;3.45;79.25;99338.09;5127498;28;20044;-69
2023/12/29 01:13:26;;;;;;;21.65;18.48;;;;;;;3.62;79.37;99371.72;5127312;28;20199;-69
2023/12/29 01:15:53;;;;;;;23.25;19.40;;;;;;;3.66;79.50;99366.34;5127672;28;20043;-69
2023/12/29 01:18:21;;;;;;;22.27;17.77;;;;;;;3.65;79.50;99375.09;5127546;28;20044;-69
2023/12/29 01:20:47;;;;;;;25.55;19.17;;;;;;;3.58;79.81;99370.94;5126402;28;20089;-69
2023/12/29 01:23:14;;;;;;;23.70;19.08;;;;;;;3.64;79.73;99385.63;5127515;28;20035;-69
2023/12/29 01:25:41;;;;;;;22.27;17.83;;;;;;;3.68;79.38;99384.66;5132001;27;20066;-69
2023/12/29 01:28:07;;;;;;;23.23;17.92;;;;;;;3.67;79.41;99380.31;5147730;27;20046;-70
2023/12/29 01:30:34;;;;;;;20.17;17.60;;;;;;;3.63;79.51;99376.91;5147678;27;20043;-69
2023/12/29 01:33:00;;;;;;;23.70;18.33;;;;;;;3.62;79.56;99371.72;5147758;27;20035;-70
2023/12/29 01:35:28;;;;;;;23.10;17.80;;;;;;;3.65;79.51;99369.00;5147817;27;20085;-69
2023/12/29 01:37:56;;;;;;;20.70;16.13;;;;;;;3.69;79.35;99365.41;5148022;27;20050;-69
2023/12/29 01:40:23;;;;;;;26.60;20.67;;;;;;;3.68;79.48;99366.31;5147383;27;20062;-69
2023/12/29 01:42:49;;;;;;;19.70;16.35;;;;;;;3.67;79.36;99361.97;5147926;27;20047;-69
2023/12/29 01:45:22;;;;;;;20.70;18.00;;;;;;;3.46;79.39;99317.09;5147571;27;20043;-70
2023/12/29 01:47:49;;;;;;;20.50;16.25;;;;;;;3.66;79.45;99352.38;5147331;27;20102;-69
2023/12/29 01:50:16;;;;;;;22.95;17.23;;;;;;;3.73;79.29;99348.69;5147517;27;20299;-71
2023/12/29 01:52:46;;;;;;;22.30;17.65;;;;;;;3.13;79.23;99274.31;5147425;27;20236;-70
2023/12/29 01:55:18;;;;;;;22.15;17.50;;;;;;;3.63;79.56;99341.97;5147389;27;20035;-69
2023/12/29 01:57:45;;;;;;;18.60;14.80;;;;;;;3.66;79.38;99342.75;5147120;27;20307;-70
2023/12/29 02:00:13;;;;;;;19.08;15.20;;;;;;;3.66;79.28;99339.28;5147279;27;20054;-70
2023/12/29 02:02:40;;;;;;;18.45;14.73;;;;;;;3.48;79.53;99311.81;5147572;27;20039;-70
2023/12/29 02:05:07;;;;;;;17.65;14.68;;;;;;;3.67;79.26;99335.75;5147246;27;20059;-69
2023/12/29 02:07:34;;;;;;;17.30;13.98;;;;;;;3.68;79.33;99332.22;5146897;27;20075;-70
2023/12/29 02:10:03;;;;;;;17.20;13.93;;;;;;;3.66;79.29;99328.78;5147229;27;20039;-70
2023/12/29 02:12:30;;;;;;;17.67;13.73;;;;;;;3.63;79.31;99332.34;5146809;27;20047;-71
2023/12/29 02:14:57;;;;;;;18.67;13.85;;;;;;;3.65;79.46;99327.06;5147078;27;20042;-71
2023/12/29 02:17:28;;;;;;;19.00;14.23;;;;;;;3.48;79.63;99320.53;5146788;27;20039;-70
2023/12/29 02:19:56;;;;;;;16.92;14.15;;;;;;;3.57;79.48;99336.91;5146833;27;20043;-71
2023/12/29 02:22:22;;;;;;;16.90;14.00;;;;;;;3.58;79.29;99339.47;5146752;27;20128;-71
2023/12/29 02:24:51;;;;;;;18.08;14.43;;;;;;;3.16;79.35;99249.81;5146759;27;20195;-70
2023/12/29 02:27:32;;;;;;;16.85;13.75;;;;;;;3.59;79.07;99324.63;5146516;27;20070;-71
2023/12/29 02:30:11;;;;;;;20.17;14.95;;;;;;;3.52;79.21;99324.78;5146897;27;20047;-71
2023/12/29 02:32:41;;;;;;;17.58;14.00;;;;;;;3.47;79.19;99339.78;5128878;28;20058;-70
2023/12/29 02:35:10;;;;;;;20.48;16.20;;;;;;;3.49;79.23;99321.38;5146632;28;20047;-71
2023/12/29 02:37:38;;;;;;;17.92;14.45;;;;;;;3.48;79.31;99322.28;5146939;28;20054;-70
2023/12/29 02:40:08;;;;;;;18.02;14.98;;;;;;;3.30;79.04;99291.34;5146540;28;20203;-71
2023/12/29 02:42:35;;;;;;;17.33;14.70;;;;;;;3.48;79.16;99312.66;5146847;28;20080;-70
2023/12/29 02:45:01;;;;;;;17.00;14.60;;;;;;;3.49;79.12;99327.47;5146789;28;20039;-70
2023/12/29 02:47:28;;;;;;;17.30;13.73;;;;;;;3.45;78.93;99322.38;5146251;28;20099;-70
2023/12/29 02:49:55;;;;;;;17.52;14.95;;;;;;;3.28;78.86;99285.28;5146816;28;20047;-70
2023/12/29 02:52:22;;;;;;;16.73;14.40;;;;;;;3.46;78.68;99324.94;5146743;28;20110;-70
2023/12/29 02:54:48;;;;;;;16.05;14.02;;;;;;;3.51;78.59;99330.94;5146936;28;20039;-70
2023/12/29 02:57:16;;;;;;;18.17;15.05;;;;;;;3.51;78.48;99346.66;5146687;28;20054;-70
2023/12/29 02:59:43;;;;;;;16.55;13.43;;;;;;;3.56;78.56;99335.19;5146398;28;20064;-70
2023/12/29 03:02:10;;;;;;;16.88;13.38;;;;;;;3.59;78.32;99329.84;5146905;28;20096;-70
2023/12/29 03:04:36;;;;;;;16.23;13.57;;;;;;;3.61;78.33;99325.44;5146676;28;20040;-70
2023/12/29 03:07:03;;;;;;;17.88;14.43;;;;;;;3.60;78.43;99316.72;5128607;28;20234;-70
2023/12/29 03:09:29;;;;;;;17.95;15.35;;;;;;;3.38;78.44;99273.66;5146612;28;20072;-71
2023/12/29 03:11:56;;;;;;;23.30;14.77;;;;;;;3.60;78.43;99310.59;5146821;28;20088;-70
2023/12/29 03:14:24;;;;;;;15.98;14.27;;;;;;;3.61;78.44;99301.84;5146198;28;20084;-71
2023/12/29 03:16:51;;;;;;;19.17;14.32;;;;;;;3.63;78.43;99306.16;5146494;28;20051;-70
2023/12/29 03:19:17;;;;;;;15.18;13.60;;;;;;;3.63;78.52;99300.03;5146793;28;20039;-70
2023/12/29 03:21:44;;;;;;;18.55;14.63;;;;;;;3.65;78.49;99301.72;5146299;28;20042;-70
2023/12/29 03:24:10;;;;;;;17.55;15.07;;;;;;;3.67;78.66;99306.91;5146681;28;20161;-70
2023/12/29 03:26:37;;;;;;;16.15;14.32;;;;;;;3.71;78.57;99296.31;5145911;28;20196;-71
2023/12/29 03:29:04;;;;;;;17.30;13.23;;;;;;;3.74;78.28;99297.97;5146395;27;20072;-71
2023/12/29 03:31:32;;;;;;;16.48;13.70;;;;;;;3.73;78.51;99302.38;5150309;27;20051;-70
2023/12/29 03:33:58;;;;;;;16.92;14.05;;;;;;;3.73;78.55;99307.59;5149861;27;20043;-71
2023/12/29 03:36:25;;;;;;;19.42;14.30;;;;;;;3.74;78.50;99295.34;5150132;27;20051;-71
2023/12/29 03:38:52;;;;;;;19.50;16.02;;;;;;;3.76;78.61;99293.56;5150112;27;20039;-71
2023/12/29 03:41:18;;;;;;;18.65;14.73;;;;;;;3.77;78.57;99300.50;5149877;27;20047;-71
2023/12/29 03:43:45;;;;;;;19.23;14.85;;;;;;;3.77;78.54;99295.28;5149987;27;20054;-71
2023/12/29 03:46:18;;;;;;;19.10;13.98;;;;;;;3.65;78.23;99261.53;5150236;27;20042;-71
2023/12/29 03:48:45;;;;;;;17.80;12.05;;;;;;;3.89;78.26;99281.81;5149884;27;20106;-70
2023/12/29 03:51:12;;;;;;;14.38;11.55;;;;;;;3.98;77.74;99286.78;5150101;27;20042;-71
2023/12/29 03:53:39;;;;;;;13.13;10.65;;;;;;;4.06;77.35;99287.41;5149480;27;20191;-71
2023/12/29 03:56:06;;;;;;;10.95;8.68;;;;;;;4.23;76.52;99284.31;5149760;27;20103;-71
2023/12/29 03:58:32;;;;;;;9.73;7.70;;;;;;;4.32;75.99;99284.03;5149446;27;20068;-71
2023/12/29 04:00:59;;;;;;;10.70;7.88;;;;;;;4.51;75.10;99275.59;5149620;27;20042;-71
2023/12/29 04:03:26;;;;;;;9.95;6.97;;;;;;;4.55;74.64;99264.06;5149412;27;20360;-71
2023/12/29 04:05:54;;;;;;;9.63;6.72;;;;;;;4.65;74.38;99266.34;5149541;27;20043;-70
2023/12/29 04:08:20;;;;;;;9.43;6.80;;;;;;;4.70;74.34;99268.84;5149257;27;20046;-71
2023/12/29 04:10:47;;;;;;;10.45;7.75;;;;;;;4.74;74.10;99263.44;5149203;27;20043;-70
2023/12/29 04:13:14;;;;;;;10.52;9.43;;;;;;;4.77;74.53;99279.09;5149898;27;20188;-70
2023/12/29 04:15:41;;;;;;;11.35;8.40;;;;;;;3.45;73.86;99045.50;5149424;27;20043;-71
2023/12/29 04:18:07;;;;;;;10.93;8.07;;;;;;;4.91;73.84;99272.53;5149051;27;20051;-71
2023/12/29 04:20:34;;;;;;;9.90;8.20;;;;;;;4.93;73.72;99274.22;5131046;27;20039;-71
2023/12/29 04:23:02;;;;;;;12.23;10.07;;;;;;;4.70;74.43;99248.69;5149262;27;20092;-70
2023/12/29 04:25:29;;;;;;;12.60;10.05;;;;;;;4.89;74.27;99284.84;5148632;27;20062;-71
2023/12/29 04:27:55;;;;;;;15.15;9.95;;;;;;;4.88;74.49;99283.13;5149133;27;20050;-71
2023/12/29 04:30:22;;;;;;;13.40;9.90;;;;;;;4.91;74.64;99277.81;5148640;27;20181;-70
2023/12/29 04:32:49;;;;;;;13.88;9.10;;;;;;;4.96;74.09;99265.38;5149105;27;20199;-71
2023/12/29 04:35:15;;;;;;;7.63;6.82;;;;;;;5.05;73.23;99259.81;5149239;27;20348;-71
2023/12/29 04:37:42;;;;;;;7.10;5.65;;;;;;;5.13;72.62;99268.28;5148741;27;20043;-71
2023/12/29 04:40:11;;;;;;;4.70;3.90;;;;;;;5.35;71.66;99265.75;5148995;27;20099;-71
2023/12/29 04:42:38;;;;;;;3.80;3.10;;;;;;;5.32;71.40;99232.56;5148595;27;20210;-71
2023/12/29 04:45:06;;;;;;;3.72;2.70;;;;;;;5.58;71.20;99260.53;5149362;27;20088;-71
2023/12/29 04:47:32;;;;;;;3.58;2.58;;;;;;;5.70;70.85;99253.97;5148766;27;20043;-71
2023/12/29 04:49:59;;;;;;;3.08;2.08;;;;;;;5.94;69.84;99270.63;5148761;27;20051;-71
2023/12/29 04:52:26;;;;;;;3.15;2.10;;;;;;;6.00;69.46;99263.34;5148724;27;20050;-71
2023/12/29 04:54:52;;;;;;;3.13;2.03;;;;;;;6.00;69.23;99236.19;5148542;27;20291;-71
2023/12/29 04:57:20;;;;;;;2.92;2.20;;;;;;;6.35;68.16;99263.75;5148586;27;20096;-71
2023/12/29 04:59:47;;;;;;;3.63;2.35;;;;;;;6.37;68.25;99256.66;5148538;27;20039;-71
2023/12/29 05:02:14;;;;;;;2.83;2.03;;;;;;;6.42;68.66;99268.72;5130416;27;20039;-71
2023/12/29 05:04:40;;;;;;;3.10;2.38;;;;;;;6.54;68.41;99259.47;5148701;27;20047;-71
2023/12/29 05:07:10;;;;;;;2.97;2.08;;;;;;;6.67;67.82;99252.78;5148143;27;20054;-71
2023/12/29 05:09:37;;;;;;;3.08;2.00;;;;;;;6.69;68.22;99265.88;5130337;27;20211;-71
2023/12/29 05:12:04;;;;;;;3.42;2.20;;;;;;;6.53;68.01;99231.44;5148007;27;20069;-71
2023/12/29 05:14:32;;;;;;;2.67;1.90;;;;;;;6.83;67.73;99260.09;5148063;27;20096;-71
2023/12/29 05:16:59;;;;;;;3.92;2.08;;;;;;;6.85;68.23;99263.50;5148165;27;20043;-71
2023/12/29 05:19:25;;;;;;;2.47;1.90;;;;;;;6.94;67.50;99255.22;5147842;27;20047;-71
2023/12/29 05:21:53;;;;;;;3.20;2.03;;;;;;;6.94;68.04;99260.50;5148048;27;20054;-70
2023/12/29 05:24:20;;;;;;;2.70;1.90;;;;;;;7.01;67.56;99252.28;5148316;27;20046;-70
2023/12/29 05:26:47;;;;;;;3.65;2.20;;;;;;;7.06;67.36;99252.94;5147499;27;20081;-71
2023/12/29 05:29:13;;;;;;;3.15;2.30;;;;;;;7.08;66.97;99252.88;5147924;27;20050;-71
2023/12/29 05:31:41;;;;;;;2.78;2.25;;;;;;;6.10;67.31;99093.69;5147612;27;20095;-71
2023/12/29 05:34:08;;;;;;;2.97;2.22;;;;;;;7.11;67.03;99257.16;5147787;27;20095;-71
2023/12/29 05:36:36;;;;;;;2.80;2.03;;;;;;;7.13;67.08;99253.53;5148085;27;20067;-71
2023/12/29 05:39:03;;;;;;;3.17;1.90;;;;;;;7.16;67.32;99249.91;5147728;27;20095;-71
2023/12/29 05:41:30;;;;;;;3.35;2.85;;;;;;;7.15;66.84;99256.09;5147729;27;20043;-71
2023/12/29 05:43:57;;;;;;;3.17;2.20;;;;;;;7.14;66.90;99254.38;5147987;27;20106;-71
2023/12/29 05:46:24;;;;;;;4.60;2.40;;;;;;;7.17;66.48;99252.47;5147619;27;20127;-71
2023/12/29 05:48:53;;;;;;;3.50;2.35;;;;;;;7.20;66.74;99260.25;5146963;27;20054;-71
2023/12/29 05:51:20;;;;;;;3.97;2.28;;;;;;;7.23;66.69;99261.91;5146883;27;20065;-71
2023/12/29 05:53:46;;;;;;;3.92;2.50;;;;;;;7.22;65.83;99257.56;5146890;27;20043;-71
2023/12/29 05:56:14;;;;;;;3.10;2.17;;;;;;;7.21;66.35;99267.25;5147457;27;20196;-71
2023/12/29 05:58:41;;;;;;;3.88;2.22;;;;;;;7.24;66.13;99271.53;5147375;27;20047;-71
2023/12/29 06:01:08;;;;;;;5.18;2.53;;;;;;;7.19;66.57;99268.22;5147344;27;20103;-71
2023/12/29 06:03:35;;;;;;;3.17;2.42;;;;;;;7.21;66.36;99254.06;5147309;27;20176;-71
2023/12/29 06:06:03;;;;;;;4.20;2.60;;;;;;;7.07;66.64;99235.34;5147005;27;20161;-71
2023/12/29 06:08:30;;;;;;;3.88;2.30;;;;;;;7.20;66.06;99260.25;5147310;27;20088;-71
2023/12/29 06:10:56;;;;;;;3.00;2.20;;;;;;;7.22;65.97;99253.13;5146942;27;20055;-71
2023/12/29 06:13:23;;;;;;;3.53;2.40;;;;;;;7.13;65.76;99264.06;5129682;27;20035;-71
2023/12/29 06:15:50;;;;;;;3.60;2.60;;;;;;;7.20;66.29;99264.66;5129086;27;20057;-71
2023/12/29 06:18:17;;;;;;;4.65;2.30;;;;;;;7.18;66.37;99266.50;5147136;27;20054;-71
2023/12/29 06:20:46;;;;;;;3.60;2.60;;;;;;;7.17;65.60;99259.53;5146841;27;20322;-71
2023/12/29 06:23:15;;;;;;;3.28;2.30;;;;;;;7.19;65.50;99262.97;5146868;27;20039;-71
2023/12/29 06:25:42;;;;;;;3.78;2.25;;;;;;;7.21;65.85;99251.41;5146702;27;20068;-70
2023/12/29 06:28:09;;;;;;;3.60;2.53;;;;;;;7.15;67.50;99251.69;5147017;27;20091;-70
2023/12/29 06:30:36;;;;;;;5.60;4.43;;;;;;;7.00;67.11;99260.25;5147041;27;20077;-70
2023/12/29 06:33:02;;;;;;;6.50;5.07;;;;;;;6.66;67.21;99235.28;5146916;27;20047;-71
2023/12/29 06:35:29;;;;;;;9.45;7.05;;;;;;;6.60;67.58;99259.22;5146887;28;20199;-71
2023/12/29 06:37:56;;;;;;;8.40;7.22;;;;;;;6.14;67.56;99201.44;5146431;28;20299;-70
2023/12/29 06:40:24;;;;;;;9.70;7.93;;;;;;;6.38;67.77;99253.09;5146866;28;20043;-71
2023/12/29 06:42:51;;;;;;;10.07;8.82;;;;;;;6.34;67.96;99248.88;5129027;28;20095;-70
2023/12/29 06:45:17;;;;;;;10.40;8.95;;;;;;;6.28;68.00;99249.97;5146759;28;20050;-71
2023/12/29 06:47:44;;;;;;;10.23;8.60;;;;;;;6.28;68.21;99257.88;5146518;28;20047;-70
2023/12/29 06:50:12;;;;;;;9.73;8.20;;;;;;;6.23;68.35;99248.44;5146765;28;20057;-70
2023/12/29 06:52:40;;;;;;;10.35;8.18;;;;;;;6.10;68.03;99256.81;5146678;28;20051;-71
2023/12/29 06:55:07;;;;;;;12.70;8.95;;;;;;;6.12;68.23;99248.00;5146657;28;20095;-70
2023/12/29 06:57:35;;;;;;;10.18;9.05;;;;;;;6.02;68.55;99252.75;5146723;28;20096;-70
2023/12/29 07:00:02;;;;;;;10.23;9.05;;;;;;;5.87;68.65;99246.31;5146593;28;20051;-71
2023/12/29 07:02:28;;;;;;;11.23;9.60;;;;;;;5.84;69.09;99249.06;5146621;28;20039;-70
2023/12/29 07:04:55;;;;;;;9.75;8.75;;;;;;;5.80;68.74;99246.59;5149909;27;20041;-70
2023/12/29 07:07:22;;;;;;;12.35;9.70;;;;;;;5.76;69.12;99236.19;5150802;27;20348;-70
2023/12/29 07:09:49;;;;;;;14.13;10.10;;;;;;;5.77;69.08;99242.31;5131877;27;20043;-70
2023/12/29 07:12:16;;;;;;;8.98;7.82;;;;;;;5.76;69.01;99246.72;5150629;27;20050;-70
2023/12/29 07:14:44;;;;;;;9.68;7.85;;;;;;;5.72;68.75;99255.63;5150391;27;20190;-70
2023/12/29 07:17:11;;;;;;;9.85;8.85;;;;;;;5.67;69.03;99251.47;5150798;27;20039;-70
2023/12/29 07:19:38;;;;;;;10.05;8.15;;;;;;;5.61;69.14;99252.53;5132624;27;20108;-71
2023/12/29 07:22:06;;;;;;;11.90;9.10;;;;;;;5.64;69.20;99256.81;5150395;27;20039;-71
2023/12/29 07:24:33;;;;;;;9.95;8.77;;;;;;;5.61;69.25;99262.19;5150530;27;20031;-71
2023/12/29 07:27:00;;;;;;;8.32;7.43;;;;;;;5.61;69.30;99268.31;5149908;27;20107;-70
2023/12/29 07:29:27;;;;;;;10.82;9.40;;;;;;;5.56;69.30;99264.13;5149755;27;20319;-71
2023/12/29 07:31:55;;;;;;;11.27;9.10;;;;;;;5.54;69.42;99272.09;5150128;27;20102;-71
2023/12/29 07:34:22;;;;;;;10.32;9.00;;;;;;;5.56;69.33;99282.53;5150450;27;20047;-70
2023/12/29 07:36:49;;;;;;;10.27;9.07;;;;;;;5.54;69.28;99279.09;5150143;27;20043;-70
2023/12/29 07:39:15;;;;;;;12.73;9.32;;;;;;;5.49;69.83;99278.41;5150116;27;20051;-71
2023/12/29 07:41:43;;;;;;;11.77;9.18;;;;;;;5.52;69.64;99286.19;5150029;27;20047;-71
2023/12/29 07:44:11;;;;;;;13.30;9.30;;;;;;;5.56;69.71;99275.50;5149930;27;20035;-71
2023/12/29 07:46:38;;;;;;;10.48;9.32;;;;;;;5.58;69.67;99272.81;5149900;27;20043;-70
2023/12/29 07:49:07;;;;;;;9.80;8.25;;;;;;;5.53;69.90;99273.00;5150096;27;20054;-70
2023/12/29 07:51:33;;;;;;;11.88;9.13;;;;;;;5.58;69.88;99257.91;5149859;27;20038;-70
2023/12/29 07:54:00;;;;;;;11.27;8.48;;;;;;;5.59;70.36;99258.78;5131689;27;20046;-70
2023/12/29 07:56:27;;;;;;;13.68;10.30;;;;;;;5.66;70.14;99268.16;5148947;27;20055;-70
2023/12/29 07:58:53;;;;;;;12.75;9.55;;;;;;;5.73;70.24;99274.91;5149767;27;20084;-70
2023/12/29 08:01:20;;;;;;;12.25;10.13;;;;;;;5.87;70.28;99279.66;5149641;27;20043;-70
2023/12/29 08:03:47;;;;;;;17.05;10.80;;;;;;;6.03;70.17;99283.41;5149647;27;20079;-70
2023/12/29 08:06:15;;;;;;;13.02;10.43;;;;;;;6.17;70.10;99275.00;5149536;27;20064;-71
2023/12/29 08:08:42;;;;;;;11.85;9.55;;;;;;;6.29;70.01;99277.16;5149448;27;20051;-71
2023/12/29 08:11:14;;;;;;;10.60;9.20;;;;;;;6.10;69.96;99221.75;5149476;27;20088;-72
2023/12/29 08:13:40;;;;;;;12.13;9.80;;;;;;;6.63;69.59;99285.44;5149389;27;20039;-71
2023/12/29 08:16:08;;;;;;;17.75;10.68;;;;;;;6.68;69.08;99295.78;5148654;27;20045;-71
2023/12/29 08:18:34;;;;;;;11.65;10.40;;;;;;;6.79;68.94;99298.84;5149665;27;20132;-71
2023/12/29 08:21:01;;;;;;;11.57;9.63;;;;;;;6.79;68.10;99298.84;5149273;27;20064;-71
2023/12/29 08:23:29;;;;;;;11.93;10.52;;;;;;;6.55;67.92;99269.09;5149208;27;20084;-71
2023/12/29 08:25:57;;;;;;;16.33;9.98;;;;;;;6.77;68.64;99308.59;5149045;27;20052;-72
2023/12/29 08:28:24;;;;;;;10.65;9.15;;;;;;;6.78;68.40;99291.00;5149168;27;20039;-72
2023/12/29 08:30:51;;;;;;;11.60;9.65;;;;;;;6.77;68.44;99290.13;5149100;27;20054;-72
2023/12/29 08:33:17;;;;;;;11.88;8.88;;;;;;;6.68;68.17;99294.00;5149012;27;20143;-71
2023/12/29 08:35:45;;;;;;;11.85;10.48;;;;;;;6.70;68.14;99297.44;5148883;27;20039;-71
2023/12/29 08:38:12;;;;;;;12.15;10.18;;;;;;;6.76;68.25;99301.59;5148963;27;20100;-71
2023/12/29 08:40:41;;;;;;;13.10;10.35;;;;;;;5.91;67.81;99166.38;5149212;27;20110;-72
2023/12/29 08:43:08;;;;;;;14.20;12.48;;;;;;;6.84;67.75;99306.59;5149047;27;20117;-72
2023/12/29 08:45:35;;;;;;;14.90;11.55;;;;;;;6.86;67.78;99304.75;5148731;27;20039;-71
2023/12/29 08:48:02;;;;;;;12.75;9.88;;;;;;;6.92;68.03;99309.75;5130743;27;20062;-71
2023/12/29 08:50:29;;;;;;;12.30;9.85;;;;;;;6.92;67.45;99312.41;5148979;27;20054;-71
2023/12/29 08:52:56;;;;;;;13.65;11.55;;;;;;;6.92;67.69;99299.22;5148276;27;20039;-70
2023/12/29 08:55:22;;;;;;;15.02;11.88;;;;;;;6.93;67.57;99309.69;5148470;27;20299;-71
2023/12/29 08:57:50;;;;;;;18.25;12.32;;;;;;;6.71;67.22;99282.50;5148442;27;20043;-71
2023/12/29 09:00:20;;;;;;;12.98;11.57;;;;;;;6.84;67.70;99317.13;5148505;27;20043;-70
2023/12/29 09:02:47;;;;;;;15.45;11.15;;;;;;;5.84;67.46;99146.47;5130559;27;20096;-72
2023/12/29 09:05:14;;;;;;;13.75;11.43;;;;;;;6.70;67.51;99288.69;5130255;27;20035;-71
2023/12/29 09:07:40;;;;;;;13.38;10.07;;;;;;;6.91;67.99;99314.19;5148082;27;20039;-70
2023/12/29 09:10:10;;;;;;;13.05;10.30;;;;;;;6.84;67.42;99319.75;5129962;27;20042;-70
2023/12/29 09:12:37;;;;;;;16.35;11.35;;;;;;;6.59;67.96;99288.25;5148225;27;20106;-71
2023/12/29 09:15:06;;;;;;;12.35;10.90;;;;;;;6.74;67.25;99308.69;5147803;27;20333;-70
2023/12/29 09:17:33;;;;;;;12.25;10.68;;;;;;;6.77;67.28;99321.75;5148121;27;20051;-71
2023/12/29 09:20:00;;;;;;;13.88;11.23;;;;;;;6.82;67.15;99300.53;5147586;27;20318;-71
2023/12/29 09:22:27;;;;;;;13.60;11.40;;;;;;;6.81;67.35;99302.31;5147785;27;20038;-71
2023/12/29 09:24:55;;;;;;;14.55;11.32;;;;;;;6.87;67.11;99301.19;5148325;27;20092;-71
2023/12/29 09:27:22;;;;;;;15.20;10.57;;;;;;;6.91;67.24;99306.28;5146488;27;20245;-71
2023/12/29 09:29:48;;;;;;;15.18;12.10;;;;;;;6.93;66.96;99307.06;5147544;27;20043;-71
2023/12/29 09:32:16;;;;;;;15.15;12.15;;;;;;;6.97;67.07;99308.66;5147498;27;20354;-71
2023/12/29 09:34:43;;;;;;;20.40;13.07;;;;;;;7.02;67.49;99309.31;5147605;27;20054;-71
2023/12/29 09:37:10;;;;;;;14.73;11.80;;;;;;;7.03;66.99;99304.91;5148055;27;20065;-71
2023/12/29 09:39:36;;;;;;;17.65;12.38;;;;;;;7.03;67.00;99304.91;5147658;27;20051;-71
2023/12/29 09:42:05;;;;;;;16.90;13.15;;;;;;;7.03;66.88;99305.78;5147360;27;20080;-71
2023/12/29 09:44:32;;;;;;;15.45;12.88;;;;;;;6.99;67.21;99290.16;5147627;27;20176;-71
2023/12/29 09:47:03;;;;;;;17.25;12.85;;;;;;;7.03;66.99;99302.28;5147428;27;20047;-71
2023/12/29 09:49:37;;;;;;;16.23;12.55;;;;;;;7.20;67.09;99293.66;5147436;27;20043;-71
2023/12/29 09:52:05;;;;;;;15.20;12.68;;;;;;;7.12;66.22;99290.50;5147251;27;20051;-71
2023/12/29 09:54:33;;;;;;;13.88;12.35;;;;;;;7.02;66.50;99285.59;5147306;27;20208;-71
2023/12/29 09:57:00;;;;;;;15.02;12.50;;;;;;;7.15;66.53;99295.63;5147259;27;20039;-71
2023/12/29 09:59:28;;;;;;;18.45;11.70;;;;;;;7.24;66.14;99287.34;5129000;27;20071;-71
2023/12/29 10:01:55;;;;;;;15.73;12.77;;;;;;;7.24;65.60;99296.09;5146748;27;20050;-71
2023/12/29 10:04:22;;;;;;;15.75;11.98;;;;;;;7.31;65.64;99289.66;5146573;27;20066;-71
2023/12/29 10:06:53;;;;;;;17.52;12.77;;;;;;;7.32;65.41;99272.91;5129085;27;20073;-71
2023/12/29 10:09:22;;;;;;;16.83;12.20;;;;;;;7.34;66.05;99263.19;5146756;27;20151;-71
2023/12/29 10:11:49;;;;;;;16.30;13.27;;;;;;;7.34;65.54;99268.47;5146718;27;20284;-71
2023/12/29 10:14:23;;;;;;;17.27;13.63;;;;;;;7.33;65.21;99260.63;5147023;27;20102;-71
2023/12/29 10:16:55;;;;;;;12.82;11.45;;;;;;;7.48;65.41;99261.72;5146913;27;20043;-71
2023/12/29 10:19:29;;;;;;;18.88;13.82;;;;;;;7.58;64.88;99249.84;5146715;27;20378;-71
2023/12/29 10:22:03;;;;;;;16.27;11.00;;;;;;;4.66;64.54;98723.84;5146991;27;20051;-71
2023/12/29 10:24:30;;;;;;;;;;;;;;;7.96;64.06;99238.41;5147382;27;20047;-71
2023/12/29 10:26:57;;;;;;;11.02;9.00;;;;;;;8.40;62.80;99224.03;5124976;28;20125;-71
2023/12/29 10:29:24;;;;;;;12.27;8.80;;;;;;;8.54;62.69;99224.22;5126539;28;20088;-71
2023/12/29 10:31:51;;;;;;;12.32;9.48;;;;;;;8.83;60.88;99220.13;5126351;28;20088;-71
2023/12/29 10:34:18;;;;;;;10.40;8.27;;;;;;;8.93;59.72;99160.59;5126263;28;20036;-71
2023/12/29 10:36:48;;;;;;;11.65;9.77;;;;;;;9.44;59.57;99219.69;5126219;28;20047;-70
2023/12/29 10:39:17;;;;;;;14.20;10.38;;;;;;;9.49;58.77;99215.00;5125709;28;20067;-71
2023/12/29 10:41:43;;;;;;;12.88;9.77;;;;;;;9.45;58.67;99210.81;5126485;28;20040;-71
2023/12/29 10:44:10;;;;;;;11.88;8.93;;;;;;;9.61;58.72;99207.28;5126120;28;20051;-71
2023/12/29 10:46:38;;;;;;;14.82;9.73;;;;;;;9.59;58.38;99209.16;5126146;28;20047;-71
2023/12/29 10:49:09;;;;;;;7.65;6.43;;;;;;;9.68;58.07;99204.31;5125719;28;20069;-71
2023/12/29 10:51:37;;;;;;;6.00;3.88;;;;;;;10.13;56.29;99201.78;5126141;28;20114;-71
2023/12/29 10:54:04;;;;;;;3.92;3.00;;;;;;;10.40;55.34;99186.13;5125671;28;20043;-71
2023/12/29 10:56:32;;;;;;;5.10;3.08;;;;;;;10.79;53.79;99164.44;5125839;28;20074;-71
2023/12/29 10:59:00;;;;;;;3.78;2.13;;;;;;;10.85;53.02;99136.72;5126063;28;20051;-71
2023/12/29 11:01:27;;;;;;;3.13;2.17;;;;;;;11.06;53.13;99161.09;5126008;28;20089;-71
2023/12/29 11:04:01;;;;;;;3.38;2.25;;;;;;;11.02;52.36;99172.81;5125880;28;20035;-71
2023/12/29 11:06:29;;;;;;;3.07;2.03;;;;;;;10.98;51.47;99156.25;5126022;28;20242;-71
2023/12/29 11:08:56;;;;;;;3.58;2.20;;;;;;;10.96;52.13;99155.50;5125798;28;20107;-72
2023/12/29 11:11:22;;;;;;;3.47;2.10;;;;;;;11.15;51.99;99155.22;5125860;28;20054;-71
2023/12/29 11:13:51;;;;;;;3.47;2.47;;;;;;;11.16;51.49;99125.97;5125922;28;20055;-71
2023/12/29 11:16:21;;;;;;;3.17;2.13;;;;;;;10.58;51.20;99034.03;5125755;28;20048;-72
2023/12/29 11:18:50;;;;;;;3.15;2.00;;;;;;;11.59;50.68;99133.06;5125812;28;20039;-72
2023/12/29 11:21:18;;;;;;;5.45;2.17;;;;;;;11.94;49.41;99134.34;5125696;28;20115;-72
2023/12/29 11:23:44;;;;;;;4.25;1.98;;;;;;;12.02;49.68;99118.78;5125860;28;20059;-72
2023/12/29 11:26:12;;;;;;;2.60;1.88;;;;;;;11.23;49.49;98969.94;5134486;28;20253;-72
2023/12/29 11:28:40;;;;;;;2.70;1.90;;;;;;;12.05;48.26;99123.91;5128112;28;20051;-70
2023/12/29 11:31:08;;;;;;;2.72;1.80;;;;;;;12.13;47.96;99108.31;5128051;28;20039;-70
2023/12/29 11:33:41;;;;;;;3.28;1.85;;;;;;;12.22;47.64;99116.66;5146182;28;20051;-72